createdAt,value
2019-01-19T00:01:30.982Z,13.47
2019-01-19T00:04:46.698Z,14.70
2019-01-19T00:07:53.488Z,14.47
2019-01-19T00:11:06.061Z,18.00
2019-01-19T00:14:12.843Z,14.83
2019-01-19T00:17:54.597Z,15.17
2019-01-19T00:21:01.372Z,15.60
2019-01-19T00:24:10.833Z,16.27
2019-01-19T00:27:32.503Z,17.47
2019-01-19T00:30:45.486Z,17.03
2019-01-19T00:33:54.957Z,17.63
2019-01-19T00:37:04.535Z,17.43
2019-01-19T00:40:23.162Z,16.73
2019-01-19T00:43:26.975Z,17.23
2019-01-19T00:46:33.760Z,15.17
2019-01-19T00:49:39.008Z,16.73
2019-01-19T00:52:45.772Z,15.20
2019-01-19T00:55:55.163Z,15.07
2019-01-19T00:59:11.064Z,13.43
2019-01-19T01:02:35.947Z,14.57
2019-01-19T01:05:42.713Z,14.87
2019-01-19T01:09:04.602Z,15.10
2019-01-19T01:12:27.837Z,15.33
2019-01-19T01:15:49.512Z,13.17
2019-01-19T01:19:02.066Z,13.47
2019-01-19T01:22:25.398Z,12.73
2019-01-19T01:25:38.050Z,12.97
2019-01-19T01:28:56.960Z,11.37
2019-01-19T01:32:03.705Z,12.10
2019-01-19T01:35:32.594Z,11.70
2019-01-19T01:38:50.727Z,13.77
2019-01-19T01:42:09.072Z,12.30
2019-01-19T01:45:27.808Z,11.03
2019-01-19T01:48:43.574Z,12.40
2019-01-19T01:52:20.863Z,12.17
2019-01-19T01:55:27.716Z,11.17
2019-01-19T01:58:46.532Z,10.20
2019-01-19T02:02:17.189Z,12.03
2019-01-19T02:05:29.958Z,12.00
2019-01-19T02:09:12.643Z,12.03
2019-01-19T02:12:34.460Z,12.03
2019-01-19T02:16:00.699Z,13.43
2019-01-19T02:19:22.551Z,12.53
2019-01-19T02:22:45.844Z,12.27
2019-01-19T02:26:01.494Z,13.07
2019-01-19T02:29:14.363Z,12.50
2019-01-19T02:32:29.863Z,12.50
2019-01-19T02:35:48.564Z,11.40
2019-01-19T02:38:59.535Z,12.87
2019-01-19T02:42:21.535Z,11.43
2019-01-19T02:45:52.307Z,10.67
2019-01-19T02:49:24.835Z,11.93
2019-01-19T02:52:52.534Z,10.20
2019-01-19T02:56:20.412Z,10.97
2019-01-19T02:59:32.944Z,9.53
2019-01-19T03:02:57.032Z,10.07
2019-01-19T03:06:06.413Z,10.40
2019-01-19T03:09:18.857Z,9.73
2019-01-19T03:12:48.968Z,10.03
2019-01-19T03:16:18.195Z,9.47
2019-01-19T03:19:37.188Z,10.47
2019-01-19T03:23:03.197Z,9.23
2019-01-19T03:26:28.113Z,9.93
2019-01-19T03:29:37.882Z,8.93
2019-01-19T03:32:47.434Z,8.13
2019-01-19T03:36:04.577Z,9.70
2019-01-19T03:39:43.381Z,8.20
2019-01-19T03:43:08.369Z,9.47
2019-01-19T03:46:36.275Z,8.07
2019-01-19T03:49:45.953Z,8.83
2019-01-19T03:52:58.563Z,8.20
2019-01-19T03:56:14.375Z,8.37
2019-01-19T03:59:29.748Z,9.10
2019-01-19T04:02:48.656Z,9.03
2019-01-19T04:06:04.185Z,10.03
2019-01-19T04:09:23.036Z,9.30
2019-01-19T04:12:51.139Z,10.93
2019-01-19T04:16:06.977Z,10.07
2019-01-19T04:19:22.483Z,10.03
2019-01-19T04:22:29.296Z,9.77
2019-01-19T04:25:36.103Z,8.27
2019-01-19T04:28:40.112Z,9.23
2019-01-19T04:31:43.784Z,8.73
2019-01-19T04:34:47.468Z,9.00
2019-01-19T04:37:51.137Z,9.20
2019-01-19T04:40:54.832Z,8.17
2019-01-19T04:43:58.504Z,8.40
2019-01-19T04:47:02.184Z,8.50
2019-01-19T04:50:08.644Z,9.83
2019-01-19T04:53:12.346Z,8.33
2019-01-19T04:56:16.004Z,9.93
2019-01-19T04:59:19.743Z,7.83
2019-01-19T05:02:23.415Z,9.40
2019-01-19T05:05:27.152Z,13.10
2019-01-19T05:08:30.814Z,13.33
2019-01-19T05:11:34.492Z,12.43
2019-01-19T05:14:38.183Z,12.67
2019-01-19T05:17:41.975Z,14.17
2019-01-19T05:20:45.613Z,13.87
2019-01-19T05:23:49.782Z,13.00
2019-01-19T05:26:53.503Z,11.17
2019-01-19T05:29:57.152Z,10.03
2019-01-19T05:33:00.874Z,10.67
2019-01-19T05:36:04.503Z,11.40
2019-01-19T05:39:08.232Z,12.63
2019-01-19T05:42:11.913Z,12.27
2019-01-19T05:45:15.604Z,11.03
2019-01-19T05:48:19.275Z,10.97
2019-01-19T05:51:22.994Z,12.00
2019-01-19T05:54:26.725Z,11.10
2019-01-19T05:57:30.393Z,13.77
2019-01-19T06:00:34.046Z,17.77
2019-01-19T06:03:37.717Z,15.70
2019-01-19T06:06:46.686Z,17.40
2019-01-19T06:09:46.729Z,16.17
2019-01-19T06:12:50.382Z,14.63
2019-01-19T06:15:54.129Z,13.77
2019-01-19T06:18:58.442Z,10.07
2019-01-19T06:22:02.237Z,11.27
2019-01-19T06:25:08.994Z,10.13
2019-01-19T06:28:12.699Z,8.20
2019-01-19T06:31:16.704Z,10.80
2019-01-19T06:34:20.381Z,11.10
2019-01-19T06:37:24.064Z,10.47
2019-01-19T06:40:27.863Z,10.70
2019-01-19T06:43:31.637Z,9.63
2019-01-19T06:46:35.323Z,10.13
2019-01-19T06:49:39.032Z,9.40
2019-01-19T06:52:42.673Z,9.73
2019-01-19T06:55:46.372Z,10.50
2019-01-19T06:58:50.006Z,9.87
2019-01-19T07:01:53.713Z,10.83
2019-01-19T07:04:57.375Z,12.73
2019-01-19T07:08:01.052Z,11.70
2019-01-19T07:11:04.732Z,12.63
2019-01-19T07:14:08.412Z,12.80
2019-01-19T07:17:12.128Z,13.17
2019-01-19T07:20:21.696Z,13.30
2019-01-19T07:23:25.433Z,13.70
2019-01-19T07:26:29.123Z,14.20
2019-01-19T07:29:32.812Z,14.30
2019-01-19T07:32:36.472Z,14.67
2019-01-19T07:35:40.168Z,15.60
2019-01-19T07:38:43.845Z,13.13
2019-01-19T07:41:47.518Z,13.77
2019-01-19T07:44:51.225Z,14.77
2019-01-19T07:47:54.875Z,14.83
2019-01-19T07:50:58.552Z,15.20
2019-01-19T07:54:02.216Z,13.33
2019-01-19T07:57:05.932Z,13.03
2019-01-19T08:00:15.481Z,14.50
2019-01-19T08:03:19.187Z,13.73
2019-01-19T08:06:22.847Z,14.20
2019-01-19T08:09:26.532Z,14.53
2019-01-19T08:12:30.272Z,13.60
2019-01-19T08:15:33.937Z,13.43
2019-01-19T08:18:38.204Z,14.07
2019-01-19T08:21:41.864Z,13.40
2019-01-19T08:24:45.588Z,15.37
2019-01-19T08:27:49.242Z,15.13
2019-01-19T08:30:52.952Z,16.40
2019-01-19T08:33:56.606Z,17.47
2019-01-19T08:37:00.347Z,16.40
2019-01-19T08:40:06.019Z,15.80
2019-01-19T08:43:13.971Z,15.47
2019-01-19T08:46:17.613Z,15.37
2019-01-19T08:49:21.342Z,11.73
2019-01-19T08:52:25.002Z,13.20
2019-01-19T08:55:29.421Z,13.80
2019-01-19T08:58:33.118Z,12.60
2019-01-19T09:01:36.842Z,12.23
2019-01-19T09:04:40.495Z,13.60
2019-01-19T09:07:44.138Z,13.80
2019-01-19T09:10:47.792Z,12.33
2019-01-19T09:13:51.487Z,13.70
2019-01-19T09:16:55.148Z,13.23
2019-01-19T09:19:58.869Z,13.10
2019-01-19T09:23:04.103Z,13.17
2019-01-19T09:26:07.813Z,13.33
2019-01-19T09:29:11.802Z,13.50
2019-01-19T09:32:15.596Z,14.30
2019-01-19T09:35:19.292Z,14.33
2019-01-19T09:38:22.983Z,14.17
2019-01-19T09:41:26.652Z,14.13
2019-01-19T09:44:30.348Z,14.53
2019-01-19T09:47:34.023Z,12.53
2019-01-19T09:50:39.077Z,13.30
2019-01-19T09:53:42.995Z,13.10
2019-01-19T09:56:46.715Z,12.17
2019-01-19T09:59:50.383Z,12.57
2019-01-19T10:02:54.070Z,14.77
2019-01-19T10:05:57.732Z,16.20
2019-01-19T10:09:01.448Z,16.80
2019-01-19T10:12:05.094Z,16.87
2019-01-19T10:15:11.963Z,18.77
2019-01-19T10:18:15.712Z,19.50
2019-01-19T10:21:19.522Z,19.77
2019-01-19T10:24:23.178Z,18.50
2019-01-19T10:27:26.883Z,21.27
2019-01-19T10:30:31.056Z,19.33
2019-01-19T10:33:34.764Z,21.83
2019-01-19T10:36:38.417Z,18.07
2019-01-19T10:39:42.094Z,18.37
2019-01-19T10:42:45.856Z,14.80
2019-01-19T10:45:49.552Z,17.80
2019-01-19T10:48:53.239Z,17.03
2019-01-19T10:51:59.467Z,10.57
2019-01-19T10:55:02.246Z,9.03
2019-01-19T10:58:05.943Z,8.50
2019-01-19T11:01:09.585Z,10.07
2019-01-19T11:04:13.280Z,9.40
2019-01-19T11:07:16.942Z,9.83
2019-01-19T11:10:22.665Z,11.73
2019-01-19T11:13:26.312Z,11.40
2019-01-19T11:16:30.038Z,11.97
2019-01-19T11:19:33.704Z,11.13
2019-01-19T11:22:37.381Z,12.60
2019-01-19T11:25:41.049Z,12.20
2019-01-19T11:28:45.040Z,10.87
2019-01-19T11:31:48.612Z,10.67
2019-01-19T11:34:52.319Z,11.70
2019-01-19T11:37:55.958Z,12.23
2019-01-19T11:40:59.635Z,11.23
2019-01-19T11:44:03.292Z,12.77
2019-01-19T11:47:07.007Z,11.83
2019-01-19T11:50:11.583Z,11.17
2019-01-19T11:53:15.283Z,12.40
2019-01-19T11:56:18.924Z,12.47
2019-01-19T11:59:22.620Z,12.47
2019-01-19T12:02:26.264Z,13.40
2019-01-19T12:05:29.979Z,13.17
2019-01-19T12:08:33.649Z,12.23
2019-01-19T12:11:37.343Z,12.70
2019-01-19T12:14:41.033Z,13.87
2019-01-19T12:17:44.752Z,13.17
2019-01-19T12:20:48.414Z,13.20
2019-01-19T12:23:52.094Z,12.53
2019-01-19T12:26:55.734Z,11.57
2019-01-19T12:29:59.436Z,11.40
2019-01-19T12:33:03.123Z,12.60
2019-01-19T12:36:06.882Z,12.00
2019-01-19T12:39:10.515Z,10.60
2019-01-19T12:42:14.621Z,11.37
2019-01-19T12:45:21.698Z,10.50
2019-01-19T12:48:25.401Z,11.60
2019-01-19T12:51:29.063Z,11.10
2019-01-19T12:54:32.766Z,11.63
2019-01-19T12:57:36.424Z,12.33
2019-01-19T13:00:40.124Z,11.23
2019-01-19T13:03:43.807Z,12.00
2019-01-19T13:06:48.097Z,13.00
2019-01-19T13:09:51.763Z,11.97
2019-01-19T13:12:56.445Z,12.10
2019-01-19T13:16:33.695Z,23.37
2019-01-19T13:19:46.343Z,11.80
2019-01-19T13:23:01.681Z,12.30
2019-01-19T13:26:08.543Z,12.13
2019-01-19T13:29:34.815Z,12.97
2019-01-19T13:33:02.157Z,12.40
2019-01-19T13:36:14.535Z,12.47
2019-01-19T13:39:23.928Z,12.33
2019-01-19T13:42:46.923Z,12.23
2019-01-19T13:46:19.546Z,18.73
2019-01-19T13:49:43.912Z,10.43
2019-01-19T13:53:02.611Z,11.83
2019-01-19T13:56:25.937Z,15.83
2019-01-19T13:59:35.616Z,11.60
2019-01-19T14:02:54.412Z,15.90
2019-01-19T14:06:04.272Z,10.90
2019-01-19T14:09:13.922Z,11.03
2019-01-19T14:12:20.755Z,10.90
2019-01-19T14:15:33.192Z,12.00
2019-01-19T14:18:40.043Z,10.53
2019-01-19T14:21:49.709Z,13.07
2019-01-19T14:25:08.336Z,12.97
2019-01-19T14:28:37.337Z,22.17
2019-01-19T14:32:02.332Z,41.90
2019-01-19T14:35:28.229Z,17.73
2019-01-19T14:38:56.759Z,25.97
2019-01-19T14:42:04.563Z,16.57
2019-01-19T14:45:26.554Z,15.23
2019-01-19T14:48:33.342Z,21.83
2019-01-19T14:51:55.308Z,18.17
2019-01-19T14:55:18.731Z,15.83
2019-01-19T14:58:42.277Z,13.33
2019-01-19T15:02:10.194Z,13.67
2019-01-19T15:05:26.143Z,16.20
2019-01-19T15:08:38.892Z,19.83
2019-01-19T15:11:51.324Z,22.60
2019-01-19T15:15:16.195Z,20.20
2019-01-19T15:18:38.241Z,20.20
2019-01-19T15:22:11.303Z,27.30
2019-01-19T15:25:20.645Z,31.30
2019-01-19T15:28:39.276Z,28.77
2019-01-19T15:31:55.052Z,31.90
2019-01-19T15:35:21.283Z,43.37
2019-01-19T15:38:50.906Z,50.20
2019-01-19T15:42:31.092Z,55.50
2019-01-19T15:46:01.823Z,38.23
2019-01-19T15:49:25.153Z,33.03
2019-01-19T15:52:38.230Z,31.47
2019-01-19T15:55:54.072Z,30.13
2019-01-19T15:59:15.831Z,36.20
2019-01-19T16:02:39.573Z,44.90
2019-01-19T16:06:20.168Z,37.83
2019-01-19T16:09:54.545Z,40.77
2019-01-19T16:13:07.062Z,41.37
2019-01-19T16:16:33.503Z,37.50
2019-01-19T16:19:53.344Z,41.23
2019-01-19T16:23:00.485Z,38.97
2019-01-19T16:26:07.325Z,40.53
2019-01-19T16:29:23.056Z,42.13
2019-01-19T16:32:35.441Z,46.73
2019-01-19T16:35:44.784Z,48.97
2019-01-19T16:38:51.645Z,48.43
2019-01-19T16:42:07.192Z,48.17
2019-01-19T16:45:26.075Z,48.70
2019-01-19T16:48:42.415Z,54.30
2019-01-19T16:51:51.867Z,64.10
2019-01-19T16:55:07.700Z,58.47
2019-01-19T16:58:29.512Z,72.80
2019-01-19T17:01:57.227Z,63.63
2019-01-19T17:05:20.382Z,71.77
2019-01-19T17:08:32.718Z,170.53
2019-01-19T17:11:45.323Z,62.53
2019-01-19T17:15:01.043Z,79.90
2019-01-19T17:18:16.132Z,92.47
2019-01-19T17:21:40.960Z,133.17
2019-01-19T17:24:59.813Z,139.27
2019-01-19T17:28:06.593Z,122.20
2019-01-19T17:31:25.460Z,92.17
2019-01-19T17:34:59.412Z,82.53
2019-01-19T17:38:12.035Z,83.33
2019-01-19T17:41:42.923Z,88.97
2019-01-19T17:45:11.022Z,84.67
2019-01-19T17:48:20.651Z,71.23
2019-01-19T17:51:50.106Z,69.97
2019-01-19T17:55:08.915Z,66.70
2019-01-19T17:58:24.520Z,59.57
2019-01-19T18:01:46.235Z,65.50
2019-01-19T18:05:04.685Z,50.87
2019-01-19T18:08:14.562Z,65.13
2019-01-19T18:11:37.244Z,57.20
2019-01-19T18:15:08.357Z,50.93
2019-01-19T18:18:20.934Z,52.73
2019-01-19T18:21:42.663Z,55.63
2019-01-19T18:25:10.545Z,57.00
2019-01-19T18:28:32.483Z,55.13
2019-01-19T18:32:00.488Z,53.27
2019-01-19T18:35:23.728Z,50.07
2019-01-19T18:38:45.555Z,48.07
2019-01-19T18:41:57.889Z,52.03
2019-01-19T18:45:04.733Z,47.97
2019-01-19T18:48:28.043Z,51.10
2019-01-19T18:51:52.973Z,51.07
2019-01-19T18:55:17.733Z,53.43
2019-01-19T18:58:30.691Z,64.73
2019-01-19T19:02:10.954Z,77.60
2019-01-19T19:05:52.265Z,65.37
2019-01-19T19:09:13.754Z,58.13
2019-01-19T19:12:29.164Z,58.53
2019-01-19T19:15:41.957Z,58.87
2019-01-19T19:19:08.185Z,57.97
2019-01-19T19:22:31.315Z,63.87
2019-01-19T19:25:57.704Z,62.77
2019-01-19T19:29:13.543Z,76.80
2019-01-19T19:32:42.974Z,77.20
2019-01-19T19:35:52.683Z,77.93
2019-01-19T19:39:17.415Z,75.47
2019-01-19T19:42:27.153Z,64.47
2019-01-19T19:45:36.624Z,65.73
2019-01-19T19:49:01.320Z,64.90
2019-01-19T19:52:05.522Z,61.47
2019-01-19T19:55:08.168Z,63.33
2019-01-19T19:58:11.876Z,62.60
2019-01-19T20:01:15.556Z,60.80
2019-01-19T20:04:19.251Z,72.03
2019-01-19T20:07:22.929Z,60.77
2019-01-19T20:10:26.635Z,61.10
2019-01-19T20:13:31.708Z,61.93
2019-01-19T20:16:35.598Z,60.47
2019-01-19T20:19:39.289Z,65.70
2019-01-19T20:22:43.001Z,68.57
2019-01-19T20:25:46.674Z,65.37
2019-01-19T20:28:50.408Z,66.03
2019-01-19T20:31:54.074Z,70.80
2019-01-19T20:34:57.844Z,78.17
2019-01-19T20:38:01.522Z,77.77
2019-01-19T20:41:05.273Z,75.50
2019-01-19T20:44:08.936Z,73.53
2019-01-19T20:47:12.657Z,77.07
2019-01-19T20:50:16.313Z,81.03
2019-01-19T20:53:20.029Z,80.77
2019-01-19T20:56:23.684Z,78.70
2019-01-19T20:59:27.403Z,77.83
2019-01-19T21:02:31.064Z,74.23
2019-01-19T21:05:34.763Z,83.70
2019-01-19T21:08:38.424Z,83.17
2019-01-19T21:12:01.493Z,90.40
2019-01-19T21:15:08.268Z,78.13
2019-01-19T21:18:13.049Z,81.87
2019-01-19T21:21:16.718Z,85.73
2019-01-19T21:24:20.434Z,86.67
2019-01-19T21:27:24.104Z,89.37
2019-01-19T21:30:27.808Z,90.73
2019-01-19T21:33:31.477Z,87.97
2019-01-19T21:36:35.187Z,89.97
2019-01-19T21:39:38.843Z,89.47
2019-01-19T21:42:42.564Z,90.60
2019-01-19T21:45:46.243Z,103.47
2019-01-19T21:48:49.954Z,120.90
2019-01-19T21:51:53.630Z,105.23
2019-01-19T21:54:57.345Z,112.40
2019-01-19T21:58:01.001Z,110.80
2019-01-19T22:01:04.727Z,106.73
2019-01-19T22:04:08.432Z,101.73
2019-01-19T22:07:12.122Z,93.53
2019-01-19T22:10:23.363Z,93.77
2019-01-19T22:13:27.113Z,85.23
2019-01-19T22:16:30.746Z,95.30
2019-01-19T22:19:34.464Z,95.60
2019-01-19T22:22:38.117Z,85.50
2019-01-19T22:25:41.818Z,90.93
2019-01-19T22:28:45.498Z,100.80
2019-01-19T22:31:49.218Z,97.17
2019-01-19T22:34:52.888Z,92.13
2019-01-19T22:37:56.613Z,96.93
2019-01-19T22:41:00.283Z,103.90
2019-01-19T22:44:04.015Z,104.03
2019-01-19T22:47:07.702Z,104.40
2019-01-19T22:50:13.522Z,103.53
2019-01-19T22:53:17.195Z,99.67
2019-01-19T22:56:20.883Z,97.60
2019-01-19T22:59:24.563Z,120.70
2019-01-19T23:02:28.254Z,124.83
2019-01-19T23:05:31.940Z,115.90
2019-01-19T23:08:35.652Z,104.03
2019-01-19T23:11:39.424Z,114.60
2019-01-19T23:14:43.655Z,113.80
2019-01-19T23:17:47.308Z,111.70
2019-01-19T23:20:51.005Z,132.07
2019-01-19T23:23:54.668Z,118.20
2019-01-19T23:26:59.695Z,117.13
2019-01-19T23:30:04.985Z,127.80
2019-01-19T23:33:08.683Z,124.73
2019-01-19T23:36:12.353Z,112.53
2019-01-19T23:39:16.065Z,114.17
2019-01-19T23:42:19.712Z,111.03
2019-01-19T23:45:23.438Z,111.67
2019-01-19T23:48:27.103Z,118.63
2019-01-19T23:51:30.815Z,132.23
2019-01-19T23:54:34.492Z,116.80
2019-01-19T23:57:38.198Z,118.47
